Time;durP1;ratioP1;P1;durP2;ratioP2;P2;SDS_P1;SDS_P2;PMS_P1;PMS_P2;Temp;Humidity;BMP_temperature;BMP_pressure;BME280_temperature;BME280_humidity;BME280_pressure;Samples;Min_cycle;Max_cycle;Signal;HPM_P1;HPM_P2
2021/06/24 00:00:11;;;;;;;6.53;5.83;;;16.10;99.90;;;;;;5033022;28;20443;-82
2021/06/24 00:02:38;;;;;;;6.47;5.87;;;16.10;99.90;;;;;;5033174;28;20454;-83
2021/06/24 00:05:09;;;;;;;6.50;5.90;;;16.10;99.90;;;;;;5033219;28;20825;-81
2021/06/24 00:07:36;;;;;;;8.87;7.10;;;16.10;99.90;;;;;;5032829;28;20476;-83
2021/06/24 00:10:03;;;;;;;7.50;6.60;;;16.10;99.90;;;;;;5032825;28;20481;-83
2021/06/24 00:12:30;;;;;;;8.60;7.60;;;16.10;99.90;;;;;;5036695;28;20450;-82
2021/06/24 00:14:57;;;;;;;8.43;7.63;;;16.20;99.90;;;;;;5036781;28;20821;-83
2021/06/24 00:17:23;;;;;;;8.87;7.90;;;16.20;99.90;;;;;;5037006;28;20830;-82
2021/06/24 00:19:50;;;;;;;7.33;6.73;;;16.20;99.90;;;;;;5037021;28;20443;-83
2021/06/24 00:22:18;;;;;;;8.43;7.23;;;16.20;99.90;;;;;;5036677;28;20934;-83
2021/06/24 00:24:45;;;;;;;7.07;6.30;;;16.10;99.90;;;;;;5036645;28;20973;-83
2021/06/24 00:27:12;;;;;;;10.27;6.40;;;16.10;99.90;;;;;;5036692;28;20447;-83
2021/06/24 00:29:38;;;;;;;6.70;6.10;;;16.10;99.90;;;;;;5036468;28;20485;-83
2021/06/24 00:32:06;;;;;;;7.13;6.40;;;16.10;99.90;;;;;;5036511;28;20954;-84
2021/06/24 00:34:33;;;;;;;5.47;5.07;;;16.20;99.90;;;;;;5036716;28;20455;-83
2021/06/24 00:36:59;;;;;;;5.50;5.00;;;16.10;99.90;;;;;;5036661;28;20473;-83
2021/06/24 00:39:27;;;;;;;8.50;4.60;;;16.10;99.90;;;;;;5036643;28;20517;-83
2021/06/24 00:41:55;;;;;;;5.37;4.90;;;16.10;99.90;;;;;;5036317;28;20937;-83
2021/06/24 00:44:22;;;;;;;5.13;4.73;;;16.10;99.90;;;;;;5036308;28;20964;-83
2021/06/24 00:46:51;;;;;;;4.87;4.33;;;16.10;99.90;;;;;;5036225;28;20459;-83
2021/06/24 00:49:19;;;;;;;4.30;3.83;;;16.20;99.90;;;;;;5036080;28;20474;-83
2021/06/24 00:51:45;;;;;;;4.30;4.00;;;16.10;99.90;;;;;;5036203;28;20509;-91
2021/06/24 00:54:13;;;;;;;5.03;4.00;;;16.20;99.90;;;;;;5037720;28;20458;-91
2021/06/24 00:56:41;;;;;;;4.03;3.73;;;16.20;99.90;;;;;;5037235;28;21007;-91
2021/06/24 00:59:08;;;;;;;3.60;3.40;;;16.20;99.90;;;;;;5036868;28;20447;-91
2021/06/24 01:01:36;;;;;;;3.23;3.03;;;16.20;99.90;;;;;;5036918;28;20434;-91
2021/06/24 01:04:04;;;;;;;3.23;3.03;;;16.10;99.90;;;;;;5036983;28;20531;-91
2021/06/24 01:06:30;;;;;;;3.40;3.20;;;16.10;99.90;;;;;;5036987;28;20466;-91
2021/06/24 01:08:57;;;;;;;3.50;3.30;;;16.10;99.90;;;;;;5037040;28;20462;-91
2021/06/24 01:11:24;;;;;;;3.47;3.17;;;16.10;99.90;;;;;;5036936;28;20488;-91
2021/06/24 01:13:52;;;;;;;3.27;3.07;;;16.10;99.90;;;;;;5036672;28;20439;-91
2021/06/24 01:16:20;;;;;;;3.13;2.93;;;16.10;99.90;;;;;;5036579;28;20437;-91
2021/06/24 01:18:48;;;;;;;2.50;2.30;;;16.10;99.90;;;;;;5036557;28;20942;-91
2021/06/24 01:21:15;;;;;;;4.33;3.50;;;16.10;99.90;;;;;;5036297;28;20865;-91
2021/06/24 01:23:45;;;;;;;3.53;3.23;;;16.10;99.90;;;;;;5036692;28;20451;-91
2021/06/24 01:26:12;;;;;;;3.50;3.20;;;16.10;99.90;;;;;;5036982;28;20450;-91
2021/06/24 01:28:39;;;;;;;3.30;3.10;;;16.10;99.90;;;;;;5036301;28;20435;-91
2021/06/24 01:31:06;;;;;;;4.37;3.30;;;16.00;99.90;;;;;;5036389;28;20478;-92
2021/06/24 01:33:33;;;;;;;4.27;3.40;;;15.90;99.90;;;;;;5036761;28;20457;-91
2021/06/24 01:36:02;;;;;;;3.73;3.37;;;15.90;99.90;;;;;;5036409;28;20442;-93
2021/06/24 01:38:29;;;;;;;3.47;3.27;;;15.90;99.90;;;;;;5036666;28;20447;-92
2021/06/24 01:40:57;;;;;;;3.13;2.93;;;15.90;99.90;;;;;;5036576;28;20443;-91
2021/06/24 01:43:24;;;;;;;3.63;3.40;;;15.90;99.90;;;;;;5036711;28;20454;-91
2021/06/24 01:45:53;;;;;;;3.40;3.20;;;15.90;99.90;;;;;;5036508;28;20449;-91
2021/06/24 01:48:20;;;;;;;3.60;3.30;;;15.90;99.90;;;;;;5036069;28;20581;-92
2021/06/24 01:50:47;;;;;;;3.67;3.40;;;15.90;99.90;;;;;;5036350;28;20518;-91
2021/06/24 01:53:14;;;;;;;3.77;3.53;;;15.90;99.90;;;;;;5036354;28;20454;-91
2021/06/24 01:55:42;;;;;;;3.20;3.10;;;15.90;99.90;;;;;;5036249;28;20453;-91
2021/06/24 01:58:12;;;;;;;3.57;3.30;;;15.90;99.90;;;;;;5036140;28;20478;-91
2021/06/24 02:00:42;;;;;;;3.20;2.87;;;16.00;99.90;;;;;;5035706;28;20500;-80
2021/06/24 02:03:09;;;;;;;3.57;2.80;;;16.00;99.90;;;;;;5035059;28;20481;-80
2021/06/24 02:05:36;;;;;;;5.50;2.50;;;16.00;99.90;;;;;;5034734;28;20447;-80
2021/06/24 02:08:03;;;;;;;2.83;2.63;;;16.00;99.90;;;;;;5034676;28;20479;-80
2021/06/24 02:10:30;;;;;;;3.27;3.17;;;16.00;99.90;;;;;;5034688;28;21020;-80
2021/06/24 02:12:57;;;;;;;2.50;2.37;;;15.90;99.90;;;;;;5034914;28;20445;-81
2021/06/24 02:15:25;;;;;;;3.50;3.27;;;15.90;99.90;;;;;;5034540;28;20461;-81
2021/06/24 02:17:52;;;;;;;2.97;2.77;;;15.90;99.90;;;;;;5034621;28;20461;-87
2021/06/24 02:20:19;;;;;;;2.73;2.63;;;15.90;99.90;;;;;;5034567;28;20443;-87
2021/06/24 02:22:47;;;;;;;2.40;2.30;;;15.90;99.90;;;;;;5034825;28;20644;-87
2021/06/24 02:25:16;;;;;;;3.50;3.30;;;15.90;99.90;;;;;;5034733;28;20443;-87
2021/06/24 02:27:43;;;;;;;2.93;2.73;;;15.90;99.90;;;;;;5034730;28;20477;-87
2021/06/24 02:30:11;;;;;;;3.10;2.90;;;15.90;99.90;;;;;;5034260;28;20942;-87
2021/06/24 02:32:40;;;;;;;3.40;2.83;;;15.90;99.90;;;;;;5034189;28;20451;-87
2021/06/24 02:35:09;;;;;;;3.10;2.90;;;15.90;99.90;;;;;;5034363;28;20454;-87
2021/06/24 02:37:36;;;;;;;2.93;2.73;;;15.90;99.90;;;;;;5034459;28;20474;-87
2021/06/24 02:40:04;;;;;;;4.90;3.20;;;15.80;99.90;;;;;;5034570;28;20445;-87
2021/06/24 02:42:31;;;;;;;3.00;2.80;;;15.90;99.90;;;;;;5034457;28;20815;-87
2021/06/24 02:44:58;;;;;;;2.90;2.80;;;15.90;99.90;;;;;;5034446;28;20446;-87
2021/06/24 02:47:25;;;;;;;2.47;2.30;;;16.00;99.90;;;;;;5034129;28;20857;-88
2021/06/24 02:49:53;;;;;;;3.10;2.60;;;15.90;99.90;;;;;;5034168;28;20431;-87
2021/06/24 02:52:20;;;;;;;2.87;2.67;;;15.90;99.90;;;;;;5034445;28;20486;-87
2021/06/24 02:54:47;;;;;;;2.97;2.60;;;15.80;99.90;;;;;;5034359;28;20434;-87
2021/06/24 02:57:13;;;;;;;2.67;2.50;;;15.80;99.90;;;;;;5034191;28;20474;-88
2021/06/24 02:59:40;;;;;;;5.50;2.57;;;15.80;99.90;;;;;;5033939;28;20435;-88
2021/06/24 03:02:07;;;;;;;2.90;2.70;;;15.80;99.90;;;;;;5033807;28;20443;-88
2021/06/24 03:04:33;;;;;;;3.10;2.80;;;15.80;99.90;;;;;;5034190;28;20453;-87
2021/06/24 03:07:02;;;;;;;2.20;2.10;;;15.80;99.90;;;;;;5034066;28;20467;-88
2021/06/24 03:09:29;;;;;;;2.13;2.03;;;15.80;99.90;;;;;;5033787;28;20446;-88
2021/06/24 03:11:55;;;;;;;2.00;1.90;;;15.80;99.90;;;;;;5033969;28;20474;-84
2021/06/24 03:14:22;;;;;;;1.80;1.70;;;15.90;99.90;;;;;;5033770;28;20451;-84
2021/06/24 03:16:49;;;;;;;2.00;1.80;;;15.80;99.90;;;;;;5033730;28;20466;-83
2021/06/24 03:19:16;;;;;;;2.20;2.10;;;15.80;99.90;;;;;;5033430;28;20946;-84
2021/06/24 03:21:43;;;;;;;1.90;1.80;;;15.90;99.90;;;;;;5033434;28;20802;-83
2021/06/24 03:24:11;;;;;;;3.50;2.37;;;15.80;99.90;;;;;;5033367;28;20438;-83
2021/06/24 03:26:38;;;;;;;2.37;2.20;;;15.90;99.90;;;;;;5033203;28;20469;-83
2021/06/24 03:29:06;;;;;;;2.00;1.90;;;15.90;99.90;;;;;;5033682;28;20465;-83
2021/06/24 03:31:33;;;;;;;2.03;1.93;;;15.90;99.90;;;;;;5034041;28;20985;-83
2021/06/24 03:34:00;;;;;;;3.23;2.30;;;15.80;99.90;;;;;;5033546;28;20458;-83
2021/06/24 03:36:27;;;;;;;1.93;1.83;;;15.90;99.90;;;;;;5033464;28;20473;-83
2021/06/24 03:38:54;;;;;;;1.80;1.70;;;15.90;99.90;;;;;;5033172;28;20958;-83
2021/06/24 03:41:24;;;;;;;1.93;1.83;;;15.90;99.90;;;;;;5033192;28;20446;-82
2021/06/24 03:43:52;;;;;;;2.60;2.50;;;15.90;99.90;;;;;;5033475;28;20446;-82
2021/06/24 03:46:19;;;;;;;5.33;2.40;;;15.90;99.90;;;;;;5032888;28;20435;-82
2021/06/24 03:48:46;;;;;;;3.53;1.90;;;15.90;99.90;;;;;;5032966;28;20486;-82
2021/06/24 03:51:13;;;;;;;2.93;1.90;;;15.90;99.90;;;;;;5033292;28;20999;-82
2021/06/24 03:53:39;;;;;;;1.90;1.80;;;15.90;99.90;;;;;;5033341;28;20450;-82
2021/06/24 03:56:06;;;;;;;2.13;2.03;;;15.90;99.90;;;;;;5032953;28;20434;-82
2021/06/24 03:58:34;;;;;;;2.07;1.97;;;16.00;99.90;;;;;;5033250;28;20446;-82
2021/06/24 04:01:02;;;;;;;1.90;1.80;;;15.90;99.90;;;;;;5033003;28;20957;-82
2021/06/24 04:03:28;;;;;;;2.30;2.20;;;15.90;99.90;;;;;;5033224;28;20442;-82
2021/06/24 04:05:55;;;;;;;3.37;2.40;;;16.00;99.90;;;;;;5033212;28;20447;-82
2021/06/24 04:08:22;;;;;;;2.30;2.20;;;16.00;99.90;;;;;;5033106;28;20465;-82
2021/06/24 04:10:49;;;;;;;2.10;2.00;;;16.00;99.90;;;;;;5033038;28;20482;-82
2021/06/24 04:13:15;;;;;;;1.97;1.80;;;16.00;99.90;;;;;;5032884;28;20456;-82
2021/06/24 04:15:43;;;;;;;2.43;2.23;;;16.10;99.90;;;;;;5033086;28;20447;-82
2021/06/24 04:18:10;;;;;;;2.10;1.97;;;16.10;99.90;;;;;;5032658;28;20989;-82
2021/06/24 04:20:37;;;;;;;2.47;2.27;;;16.10;99.90;;;;;;5033075;28;20457;-82
2021/06/24 04:23:04;;;;;;;2.30;2.10;;;16.10;99.90;;;;;;5033031;28;20451;-82
2021/06/24 04:25:31;;;;;;;2.03;1.93;;;16.20;99.90;;;;;;5032717;28;20451;-81
2021/06/24 04:28:00;;;;;;;2.00;1.90;;;16.20;99.90;;;;;;5032794;28;20475;-82
2021/06/24 04:30:28;;;;;;;2.47;2.30;;;16.20;99.90;;;;;;5033007;28;20454;-82
2021/06/24 04:32:56;;;;;;;2.10;2.00;;;16.20;99.90;;;;;;5032556;28;20482;-82
2021/06/24 04:35:23;;;;;;;2.10;2.00;;;16.30;99.90;;;;;;5033767;28;20458;-90
2021/06/24 04:37:50;;;;;;;2.83;2.50;;;16.30;99.90;;;;;;5033680;28;20462;-90
2021/06/24 04:40:17;;;;;;;3.03;2.83;;;16.30;99.90;;;;;;5033575;28;20454;-90
2021/06/24 04:42:44;;;;;;;3.13;2.67;;;16.40;99.90;;;;;;5033732;28;20522;-90
2021/06/24 04:45:13;;;;;;;3.40;3.10;;;16.40;99.90;;;;;;5033774;28;20446;-90
2021/06/24 04:47:40;;;;;;;3.07;2.87;;;16.50;99.90;;;;;;5033211;28;20941;-90
2021/06/24 04:50:09;;;;;;;2.50;2.40;;;16.50;99.90;;;;;;5033585;28;20474;-90
2021/06/24 04:52:36;;;;;;;3.03;2.83;;;16.50;99.90;;;;;;5033459;28;20490;-90
2021/06/24 04:55:03;;;;;;;3.00;2.80;;;16.60;99.90;;;;;;5033259;28;20458;-87
2021/06/24 04:57:30;;;;;;;3.37;3.07;;;16.60;99.90;;;;;;5034573;28;20473;-86
2021/06/24 04:59:56;;;;;;;2.80;2.60;;;16.70;99.90;;;;;;5036357;28;20446;-87
2021/06/24 05:02:23;;;;;;;3.50;3.20;;;16.70;99.90;;;;;;5036056;28;20811;-87
2021/06/24 05:04:51;;;;;;;3.00;2.80;;;16.80;99.90;;;;;;5036264;28;20442;-87
2021/06/24 05:07:19;;;;;;;2.57;2.33;;;16.80;99.90;;;;;;5036295;28;20466;-87
2021/06/24 05:09:46;;;;;;;3.33;2.80;;;16.80;99.90;;;;;;5036303;28;20453;-87
2021/06/24 05:12:13;;;;;;;3.43;2.60;;;16.80;99.90;;;;;;5035822;28;20481;-87
2021/06/24 05:14:41;;;;;;;3.33;3.13;;;16.80;99.90;;;;;;5036179;28;20542;-87
2021/06/24 05:17:12;;;;;;;3.03;2.83;;;16.90;99.90;;;;;;5035744;28;20475;-87
2021/06/24 05:19:40;;;;;;;9.90;2.93;;;17.00;99.90;;;;;;5036128;28;20489;-87
2021/06/24 05:22:06;;;;;;;4.53;3.47;;;17.00;99.90;;;;;;5035721;28;21026;-87
2021/06/24 05:24:35;;;;;;;3.43;3.23;;;17.10;99.90;;;;;;5035753;28;20461;-87
2021/06/24 05:27:02;;;;;;;3.40;3.10;;;17.20;99.90;;;;;;5035551;28;20982;-87
2021/06/24 05:29:29;;;;;;;3.83;3.43;;;17.20;99.90;;;;;;5035642;28;20461;-88
2021/06/24 05:31:56;;;;;;;3.43;3.23;;;17.30;99.90;;;;;;5035877;28;20489;-88
2021/06/24 05:34:22;;;;;;;3.17;3.03;;;17.30;99.90;;;;;;5036299;28;20450;-88
2021/06/24 05:36:49;;;;;;;3.90;3.60;;;17.30;99.90;;;;;;5035839;28;20474;-88
2021/06/24 05:39:16;;;;;;;3.60;3.40;;;17.30;99.90;;;;;;5036002;28;20438;-88
2021/06/24 05:41:44;;;;;;;5.00;4.00;;;17.40;99.90;;;;;;5035900;28;20790;-88
2021/06/24 05:44:12;;;;;;;3.40;3.20;;;17.50;99.90;;;;;;5035935;28;20431;-88
2021/06/24 05:46:39;;;;;;;4.53;4.13;;;17.60;99.90;;;;;;5035774;28;20478;-88
2021/06/24 05:49:06;;;;;;;4.40;4.07;;;17.80;99.90;;;;;;5035371;28;20485;-88
2021/06/24 05:51:32;;;;;;;4.37;3.97;;;17.90;99.90;;;;;;5035646;28;20470;-88
2021/06/24 05:53:59;;;;;;;3.97;3.53;;;17.90;99.90;;;;;;5035435;28;20446;-88
2021/06/24 05:56:26;;;;;;;4.70;4.40;;;17.80;99.90;;;;;;5035431;28;20474;-88
2021/06/24 05:58:54;;;;;;;4.40;4.00;;;17.70;99.90;;;;;;5036358;28;20435;-88
2021/06/24 06:01:21;;;;;;;4.57;4.27;;;17.70;99.90;;;;;;5035448;28;20427;-88
2021/06/24 06:03:48;;;;;;;4.40;4.10;;;17.70;99.90;;;;;;5035672;28;20430;-88
2021/06/24 06:06:15;;;;;;;4.47;4.10;;;17.70;99.90;;;;;;5035134;28;20902;-88
2021/06/24 06:08:43;;;;;;;4.90;4.50;;;17.80;99.90;;;;;;5035394;28;20441;-88
2021/06/24 06:11:09;;;;;;;4.43;4.10;;;17.80;99.90;;;;;;5035204;28;20453;-88
2021/06/24 06:13:36;;;;;;;4.90;4.40;;;17.70;99.90;;;;;;5035312;28;20451;-88
2021/06/24 06:16:05;;;;;;;4.13;3.83;;;17.70;99.90;;;;;;5034967;28;20576;-88
2021/06/24 06:18:32;;;;;;;7.00;4.80;;;17.70;99.90;;;;;;5034850;28;20447;-88
2021/06/24 06:20:59;;;;;;;5.27;4.87;;;17.70;99.90;;;;;;5035081;28;20823;-88
2021/06/24 06:23:27;;;;;;;4.30;4.00;;;17.70;99.90;;;;;;5035115;28;20450;-88
2021/06/24 06:25:55;;;;;;;4.70;4.30;;;17.70;99.90;;;;;;5035044;28;20815;-88
2021/06/24 06:28:23;;;;;;;4.43;4.03;;;17.80;99.90;;;;;;5034754;28;20472;-88
2021/06/24 06:30:52;;;;;;;4.23;3.93;;;17.80;99.90;;;;;;5034989;28;20447;-88
2021/06/24 06:33:21;;;;;;;3.77;3.47;;;17.90;99.90;;;;;;5034595;28;20482;-88
2021/06/24 06:35:49;;;;;;;3.50;3.20;;;18.00;99.90;;;;;;5034685;28;20462;-88
2021/06/24 06:38:16;;;;;;;4.23;3.83;;;18.10;99.90;;;;;;5034770;28;20483;-88
2021/06/24 06:40:43;;;;;;;4.17;3.87;;;18.20;99.90;;;;;;5034761;28;20497;-88
2021/06/24 06:43:12;;;;;;;5.30;4.90;;;18.30;99.90;;;;;;5034342;28;20461;-88
2021/06/24 06:45:38;;;;;;;4.47;4.07;;;18.30;99.90;;;;;;5034265;28;20942;-87
2021/06/24 06:48:06;;;;;;;4.23;3.80;;;18.30;99.90;;;;;;5034131;28;20482;-88
2021/06/24 06:50:34;;;;;;;4.73;4.07;;;18.30;99.90;;;;;;5034498;28;20451;-88
2021/06/24 06:53:00;;;;;;;5.37;4.57;;;18.30;99.90;;;;;;5034508;28;20855;-88
2021/06/24 06:55:29;;;;;;;3.87;3.57;;;18.30;99.90;;;;;;5034364;28;20446;-88
2021/06/24 06:57:56;;;;;;;4.33;3.93;;;18.30;99.90;;;;;;5034425;28;20517;-87
2021/06/24 07:00:24;;;;;;;4.13;3.30;;;18.30;99.90;;;;;;5034232;28;20505;-87
2021/06/24 07:02:51;;;;;;;3.40;3.10;;;18.30;99.90;;;;;;5034462;28;20530;-87
2021/06/24 07:05:18;;;;;;;4.27;3.97;;;18.30;99.90;;;;;;5033853;28;20930;-87
2021/06/24 07:07:47;;;;;;;4.30;4.00;;;18.30;99.90;;;;;;5034255;28;20481;-88
2021/06/24 07:10:14;;;;;;;3.90;3.70;;;18.20;99.90;;;;;;5034177;28;20451;-88
2021/06/24 07:12:41;;;;;;;3.93;3.63;;;18.20;99.90;;;;;;5033986;28;20860;-88
2021/06/24 07:15:08;;;;;;;5.20;4.63;;;18.20;99.90;;;;;;5034096;28;20956;-86
2021/06/24 07:17:35;;;;;;;5.00;4.60;;;18.20;99.90;;;;;;5033957;28;20461;-88
2021/06/24 07:20:02;;;;;;;5.10;4.60;;;18.30;99.90;;;;;;5033329;28;20457;-87
2021/06/24 07:22:28;;;;;;;3.67;3.47;;;18.60;99.90;;;;;;5033913;28;20443;-82
2021/06/24 07:24:57;;;;;;;3.67;3.30;;;18.80;99.90;;;;;;5033315;28;20461;-82
2021/06/24 07:27:23;;;;;;;4.23;3.93;;;19.10;99.90;;;;;;5033326;28;20454;-81
2021/06/24 07:29:50;;;;;;;3.80;3.60;;;19.20;99.90;;;;;;5033249;28;20451;-81
2021/06/24 07:32:18;;;;;;;3.63;3.43;;;19.70;99.90;;;;;;5033140;28;20471;-80
2021/06/24 07:34:45;;;;;;;4.10;3.80;;;20.00;99.90;;;;;;5033208;28;20443;-81
2021/06/24 07:37:12;;;;;;;4.47;4.07;;;20.00;99.90;;;;;;5033077;28;20470;-81
2021/06/24 07:39:38;;;;;;;3.83;3.63;;;20.00;99.90;;;;;;5033490;28;20447;-81
2021/06/24 07:42:07;;;;;;;3.73;3.47;;;20.00;99.90;;;;;;5033105;28;20443;-81
2021/06/24 07:44:34;;;;;;;3.87;3.67;;;20.00;99.90;;;;;;5033413;28;20446;-81
2021/06/24 07:47:01;;;;;;;3.47;3.17;;;20.00;99.90;;;;;;5032988;28;20475;-81
2021/06/24 07:49:28;;;;;;;3.07;2.87;;;20.10;99.90;;;;;;5033380;28;20461;-81
2021/06/24 07:51:54;;;;;;;3.43;3.20;;;20.50;99.90;;;;;;5033266;28;20456;-81
2021/06/24 07:54:21;;;;;;;3.23;3.03;;;21.20;99.90;;;;;;5033246;28;20454;-81
2021/06/24 07:56:48;;;;;;;3.53;3.23;;;21.80;99.90;;;;;;5033450;28;20478;-87
2021/06/24 07:59:16;;;;;;;2.70;2.60;;;22.30;99.90;;;;;;5033768;28;20490;-87
2021/06/24 08:01:43;;;;;;;2.40;2.30;;;22.70;99.90;;;;;;5033606;28;20460;-86
2021/06/24 08:04:10;;;;;;;2.50;2.40;;;23.10;99.90;;;;;;5033514;28;20929;-87
2021/06/24 08:06:37;;;;;;;2.90;2.72;;;23.70;99.90;;;;;;5033687;28;20277;-87
2021/06/24 08:09:06;;;;;;;5.47;3.08;;;23.80;99.90;;;;;;5033469;28;20676;-87
2021/06/24 08:11:32;;;;;;;2.45;2.35;;;23.50;99.90;;;;;;5034047;28;20203;-87
2021/06/24 08:13:59;;;;;;;2.20;2.10;;;23.20;99.90;;;;;;5033275;28;20223;-87
2021/06/24 08:16:29;;;;;;;1.73;1.63;;;22.80;99.90;;;;;;5033588;28;20223;-87
2021/06/24 08:18:55;;;;;;;2.70;2.50;;;22.80;99.90;;;;;;5033798;28;20320;-87
2021/06/24 08:21:22;;;;;;;2.20;2.10;;;22.60;99.90;;;;;;5033476;28;20196;-87
2021/06/24 08:23:49;;;;;;;2.80;2.70;;;22.40;99.90;;;;;;5033702;28;20963;-87
2021/06/24 08:26:16;;;;;;;2.50;2.40;;;22.10;99.90;;;;;;5033257;28;20210;-87
2021/06/24 08:28:43;;;;;;;2.20;2.10;;;21.80;99.90;;;;;;5033544;28;20430;-87
2021/06/24 08:31:10;;;;;;;2.10;1.97;;;21.50;99.90;;;;;;5033621;28;20783;-85
2021/06/24 08:33:38;;;;;;;3.10;2.90;;;21.30;99.90;;;;;;5036800;28;20846;-87
2021/06/24 08:36:05;;;;;;;2.27;2.17;;;21.00;99.90;;;;;;5037185;28;20446;-86
2021/06/24 08:38:32;;;;;;;2.27;2.17;;;20.90;99.90;;;;;;5036926;28;20933;-82
2021/06/24 08:40:59;;;;;;;3.63;3.40;;;20.90;99.90;;;;;;5036692;28;20438;-82
2021/06/24 08:43:26;;;;;;;2.60;2.47;;;21.00;99.90;;;;;;5036404;28;20438;-82
2021/06/24 08:45:56;;;;;;;2.17;2.07;;;21.00;99.90;;;;;;5036629;28;20438;-82
2021/06/24 08:48:26;;;;;;;2.40;2.30;;;21.00;99.90;;;;;;5036213;28;20509;-82
2021/06/24 08:50:54;;;;;;;2.37;2.17;;;21.00;99.90;;;;;;5036364;28;20450;-82
2021/06/24 08:53:22;;;;;;;3.53;2.30;;;20.90;99.90;;;;;;5036403;28;20486;-81
2021/06/24 08:55:53;;;;;;;1.90;1.80;;;20.90;99.90;;;;;;5036417;28;20817;-82
2021/06/24 08:58:21;;;;;;;2.17;1.97;;;20.90;99.90;;;;;;5036373;28;20565;-81
2021/06/24 09:00:48;;;;;;;2.13;2.03;;;21.00;99.90;;;;;;5036061;28;20450;-82
2021/06/24 09:03:17;;;;;;;3.60;2.27;;;21.30;99.90;;;;;;5036299;28;20450;-82
2021/06/24 09:05:54;;;;;;;2.23;2.13;;;21.40;99.90;;;;;;5035918;28;20454;-82
2021/06/24 09:08:35;;;;;;;2.70;2.60;;;21.40;99.90;;;;;;5036163;28;20477;-82
2021/06/24 09:11:22;;;;;;;2.97;2.77;;;21.40;99.90;;;;;;5036179;28;20466;-82
2021/06/24 09:14:01;;;;;;;2.77;1.90;;;21.80;99.90;;;;;;5035752;28;20477;-83
2021/06/24 09:16:30;;;;;;;2.10;2.00;;;22.40;99.90;;;;;;5035988;28;20469;-83
2021/06/24 09:19:17;;;;;;;2.27;2.17;;;22.90;99.90;;;;;;5035984;28;20442;-83
2021/06/24 09:21:48;;;;;;;2.17;2.07;;;23.00;99.90;;;;;;5036174;28;20434;-82
2021/06/24 09:24:23;;;;;;;1.57;1.47;;;23.00;99.90;;;;;;5035963;28;20222;-82
2021/06/24 09:26:51;;;;;;;1.60;1.50;;;22.90;99.90;;;;;;5035505;28;21004;-82
2021/06/24 09:29:19;;;;;;;1.70;1.60;;;22.70;99.90;;;;;;5035522;28;20823;-83
2021/06/24 09:31:50;;;;;;;2.10;2.00;;;22.60;99.90;;;;;;5035790;28;20291;-82
2021/06/24 09:34:18;;;;;;;1.80;1.70;;;22.50;99.90;;;;;;5035661;28;20557;-82
2021/06/24 09:36:48;;;;;;;1.90;1.80;;;22.50;99.90;;;;;;5035254;28;21005;-83
2021/06/24 09:39:31;;;;;;;2.03;1.93;;;22.50;99.90;;;;;;5035573;28;20494;-82
2021/06/24 09:42:02;;;;;;;2.60;2.17;;;22.50;99.90;;;;;;5036175;28;20522;-83
2021/06/24 09:44:30;;;;;;;1.77;1.67;;;22.50;99.90;;;;;;5035752;28;20434;-83
2021/06/24 09:46:57;;;;;;;1.90;1.80;;;22.50;99.90;;;;;;5035372;28;20459;-82
2021/06/24 09:49:29;;;;;;;1.77;1.67;;;22.30;99.90;;;;;;5034979;28;20921;-81
2021/06/24 09:52:00;;;;;;;3.03;1.93;;;22.30;99.90;;;;;;5035061;28;20453;-82
2021/06/24 09:54:35;;;;;;;1.93;1.83;;;22.20;99.90;;;;;;5035004;28;20466;-83
2021/06/24 09:57:04;;;;;;;2.00;1.90;;;22.20;99.90;;;;;;5035201;28;20321;-82
2021/06/24 09:59:34;;;;;;;1.70;1.60;;;22.10;99.90;;;;;;5035254;28;20458;-82
2021/06/24 10:02:11;;;;;;;2.03;1.93;;;22.00;99.90;;;;;;5035189;28;20453;-82
2021/06/24 10:04:40;;;;;;;2.00;1.90;;;21.90;99.90;;;;;;5035224;28;20426;-82
2021/06/24 10:07:11;;;;;;;2.23;2.13;;;21.70;99.90;;;;;;5034825;28;20450;-82
2021/06/24 10:09:39;;;;;;;1.90;1.80;;;21.50;99.90;;;;;;5035099;28;20434;-82
2021/06/24 10:12:08;;;;;;;1.67;1.67;;;21.40;99.90;;;;;;5034622;28;20454;-83
2021/06/24 10:14:34;;;;;;;1.50;1.50;;;21.30;99.90;;;;;;5034912;28;20478;-82
2021/06/24 10:17:03;;;;;;;3.60;1.93;;;21.30;99.90;;;;;;5035048;28;20856;-83
2021/06/24 10:19:31;;;;;;;1.80;1.70;;;21.30;99.90;;;;;;5035033;28;20454;-83
2021/06/24 10:22:00;;;;;;;1.80;1.70;;;21.20;99.90;;;;;;5034533;28;20537;-82
2021/06/24 10:24:32;;;;;;;2.23;2.13;;;21.30;99.90;;;;;;5034894;28;20450;-82
2021/06/24 10:27:05;;;;;;;1.67;1.30;;;21.40;99.90;;;;;;5034487;28;20462;-82
2021/06/24 10:29:47;;;;;;;1.73;1.63;;;21.40;99.90;;;;;;5034709;28;20439;-82
2021/06/24 10:32:41;;;;;;;1.60;1.50;;;21.50;99.90;;;;;;5034632;28;20532;-83
2021/06/24 10:35:23;;;;;;;1.47;1.43;;;21.50;99.90;;;;;;4988450;28;20454;-83
2021/06/24 10:37:51;;;;;;;1.60;1.53;;;21.60;99.90;;;;;;5034231;28;20470;-82
2021/06/24 10:40:28;;;;;;;1.47;1.47;;;21.80;99.90;;;;;;5034636;28;20458;-82
2021/06/24 10:42:57;;;;;;;1.83;1.60;;;21.80;99.90;;;;;;5034847;28;20450;-82
2021/06/24 10:45:25;;;;;;;1.40;1.30;;;21.90;99.90;;;;;;5034377;28;20450;-83
2021/06/24 10:47:55;;;;;;;1.93;1.60;;;21.90;99.90;;;;;;5034007;28;20474;-82
2021/06/24 10:50:44;;;;;;;2.40;1.30;;;22.10;99.90;;;;;;5034180;28;20508;-81
2021/06/24 10:53:53;;;;;;;1.43;1.43;;;22.40;99.90;;;;;;5033993;28;20470;-82
2021/06/24 10:56:48;;;;;;;1.67;1.57;;;22.80;99.90;;;;;;5033788;28;20520;-83
2021/06/24 10:59:28;;;;;;;1.07;1.07;;;23.00;99.90;;;;;;5034400;28;20748;-82
2021/06/24 11:02:14;;;;;;;1.90;1.80;;;23.20;99.90;;;;;;5034654;28;20434;-81
2021/06/24 11:04:45;;;;;;;2.90;1.97;;;23.00;99.90;;;;;;5034449;28;20435;-84
2021/06/24 11:07:24;;;;;;;1.67;1.57;;;23.00;99.90;;;;;;5034378;28;20509;-88
2021/06/24 11:10:13;;;;;;;1.30;1.30;;;22.90;99.90;;;;;;5034295;28;20419;-88
2021/06/24 11:13:05;;;;;;;1.10;1.10;;;22.90;99.90;;;;;;5034453;28;20207;-88
2021/06/24 11:15:46;;;;;;;0.90;0.90;;;22.80;99.90;;;;;;5034136;28;20927;-88
2021/06/24 11:18:56;;;;;;;0.77;0.77;;;22.70;99.90;;;;;;5034397;28;20282;-89
2021/06/24 11:21:53;;;;;;;0.90;0.90;;;22.60;99.90;;;;;;5034504;28;20204;-88
2021/06/24 11:24:25;;;;;;;0.80;0.80;;;22.50;99.90;;;;;;5034525;28;20474;-87
2021/06/24 11:26:55;;;;;;;0.90;0.90;;;22.40;99.90;;;;;;5034083;28;20481;-87
2021/06/24 11:32:12;;;;;;;1.43;0.87;;;22.40;99.90;;;;;;5033536;28;20828;-88
2021/06/24 11:34:46;;;;;;;1.30;1.30;;;22.10;99.90;;;;;;5033837;28;20481;-88
2021/06/24 11:37:16;;;;;;;0.97;0.97;;;22.10;99.90;;;;;;5034178;28;20474;-88
2021/06/24 11:39:46;;;;;;;0.83;0.83;;;21.90;99.90;;;;;;5034262;28;20849;-88
2021/06/24 11:42:14;;;;;;;0.80;0.80;;;21.80;99.90;;;;;;5033713;28;20437;-88
2021/06/24 11:44:47;;;;;;;0.87;0.87;;;21.80;99.90;;;;;;5033939;28;20454;-88
2021/06/24 11:47:17;;;;;;;0.90;0.90;;;21.70;99.90;;;;;;5033669;28;20477;-88
2021/06/24 12:01:24;;;;;;;1.60;0.80;;;21.60;99.90;;;;;;5033918;28;20406;-87
2021/06/24 12:03:50;;;;;;;0.90;0.90;;;21.80;99.90;;;;;;5033835;28;20799;-87
2021/06/24 12:06:17;;;;;;;0.70;0.70;;;22.00;99.90;;;;;;5035189;28;20536;-88
2021/06/24 12:08:44;;;;;;;0.83;0.80;;;22.20;99.90;;;;;;5037728;28;20208;-87
2021/06/24 12:11:12;;;;;;;1.07;0.80;;;22.30;99.90;;;;;;5037824;28;20454;-87
2021/06/24 12:13:43;;;;;;;2.87;0.90;;;22.30;99.90;;;;;;5037302;28;20500;-87
2021/06/24 12:16:13;;;;;;;0.77;0.77;;;22.20;99.90;;;;;;5037904;28;20450;-86
2021/06/24 12:18:41;;;;;;;0.63;0.63;;;22.30;99.90;;;;;;5037065;28;20430;-86
2021/06/24 12:21:10;;;;;;;0.83;0.77;;;22.30;99.90;;;;;;5037088;28;20458;-86
2021/06/24 12:23:41;;;;;;;1.30;0.73;;;22.40;99.90;;;;;;5037270;28;20438;-86
2021/06/24 12:26:09;;;;;;;1.50;0.70;;;22.50;99.90;;;;;;5036849;28;20497;-86
2021/06/24 12:28:36;;;;;;;0.80;0.70;;;22.60;99.90;;;;;;5037160;28;20501;-86
2021/06/24 12:31:04;;;;;;;1.10;1.10;;;22.70;99.90;;;;;;5037098;28;20442;-87
2021/06/24 12:33:32;;;;;;;0.70;0.70;;;22.80;99.90;;;;;;5037279;28;20486;-87
2021/06/24 12:36:00;;;;;;;0.93;0.93;;;22.80;99.90;;;;;;5036935;28;20454;-87
2021/06/24 12:38:28;;;;;;;0.70;0.70;;;22.90;99.90;;;;;;5037062;28;20481;-87
2021/06/24 12:40:58;;;;;;;0.70;0.70;;;23.00;99.90;;;;;;5036955;28;20196;-88
2021/06/24 12:43:28;;;;;;;0.70;0.70;;;23.10;99.90;;;;;;5036815;28;20195;-87
2021/06/24 12:45:56;;;;;;;0.67;0.67;;;23.20;99.90;;;;;;5037087;28;20187;-88
2021/06/24 12:48:34;;;;;;;0.70;0.70;;;23.10;99.90;;;;;;5036508;28;20495;-88
2021/06/24 12:51:02;;;;;;;1.07;0.60;;;23.10;99.90;;;;;;5037170;28;20245;-88
2021/06/24 12:53:31;;;;;;;1.07;0.73;;;23.10;99.90;;;;;;5036786;28;20478;-87
2021/06/24 12:55:58;;;;;;;1.10;0.70;;;23.00;99.90;;;;;;5036648;28;20434;-88
2021/06/24 12:58:34;;;;;;;0.97;0.97;;;22.80;99.90;;;;;;5036684;28;20465;-85
2021/06/24 13:01:09;;;;;;;1.33;0.83;;;22.60;99.90;;;;;;5036296;28;20203;-86
2021/06/24 13:03:43;;;;;;;1.17;1.07;;;22.50;99.90;;;;;;5036440;28;20199;-86
2021/06/24 13:06:13;;;;;;;1.37;1.00;;;22.40;99.90;;;;;;5036286;28;20421;-86
2021/06/24 13:08:51;;;;;;;1.10;1.10;;;22.40;99.90;;;;;;5037239;28;20785;-86
2021/06/24 13:11:19;;;;;;;1.20;1.20;;;22.30;99.90;;;;;;5036425;28;20496;-85